createdAt,value
2019-04-30T00:00:07.055Z,100.00
2019-04-30T00:02:45.314Z,100.00
2019-04-30T00:05:19.112Z,100.00
2019-04-30T00:07:55.033Z,100.00
2019-04-30T00:10:29.499Z,100.00
2019-04-30T00:12:57.131Z,100.00
2019-04-30T00:15:27.792Z,100.00
2019-04-30T00:18:01.740Z,100.00
2019-04-30T00:20:34.624Z,100.00
2019-04-30T00:23:02.081Z,100.00
2019-04-30T00:25:32.318Z,100.00
2019-04-30T00:28:05.246Z,100.00
2019-04-30T00:30:35.160Z,100.00
2019-04-30T00:33:06.940Z,100.00
2019-04-30T00:35:37.214Z,100.00
2019-04-30T00:38:08.903Z,100.00
2019-04-30T00:40:39.315Z,100.00
2019-04-30T00:43:09.619Z,100.00
2019-04-30T00:45:44.181Z,100.00
2019-04-30T00:48:11.895Z,100.00
2019-04-30T00:50:42.224Z,100.00
2019-04-30T00:53:14.824Z,100.00
2019-04-30T00:55:48.455Z,100.00
2019-04-30T00:58:28.916Z,100.00
2019-04-30T01:03:13.140Z,100.00
2019-04-30T01:05:47.905Z,100.00
2019-04-30T01:08:21.059Z,100.00
2019-04-30T01:10:50.645Z,100.00
2019-04-30T01:13:20.882Z,100.00
2019-04-30T01:15:52.570Z,100.00
2019-04-30T01:18:23.512Z,100.00
2019-04-30T01:20:55.451Z,100.00
2019-04-30T01:23:25.802Z,100.00
2019-04-30T01:25:56.408Z,100.00
2019-04-30T01:28:28.436Z,100.00
2019-04-30T01:31:01.971Z,100.00
2019-04-30T01:33:34.728Z,100.00
2019-04-30T01:36:09.590Z,100.00
2019-04-30T01:38:40.405Z,100.00
2019-04-30T01:41:12.713Z,100.00
2019-04-30T01:43:43.653Z,100.00
2019-04-30T01:46:14.102Z,100.00
2019-04-30T01:48:50.569Z,100.00
2019-04-30T01:51:18.396Z,100.00
2019-04-30T01:53:48.574Z,100.00
2019-04-30T01:56:36.734Z,100.00
2019-04-30T01:59:29.151Z,100.00
2019-04-30T02:01:59.404Z,100.00
2019-04-30T02:04:31.502Z,100.00
2019-04-30T02:07:01.772Z,100.00
2019-04-30T02:09:32.014Z,100.00
2019-04-30T02:12:02.262Z,100.00
2019-04-30T02:14:32.825Z,100.00
2019-04-30T02:17:03.139Z,100.00
2019-04-30T02:19:33.504Z,100.00
2019-04-30T02:22:03.799Z,100.00
2019-04-30T02:24:34.075Z,100.00
2019-04-30T02:27:23.545Z,100.00
2019-04-30T02:29:53.908Z,100.00
2019-04-30T02:32:24.140Z,100.00
2019-04-30T02:35:03.516Z,100.00
2019-04-30T02:37:35.407Z,100.00
2019-04-30T02:40:09.958Z,100.00
2019-04-30T02:42:40.060Z,100.00
2019-04-30T02:45:11.798Z,100.00
2019-04-30T02:47:42.861Z,100.00
2019-04-30T02:50:18.449Z,100.00
2019-04-30T02:52:50.271Z,100.00
2019-04-30T02:55:30.524Z,100.00
2019-04-30T02:58:00.771Z,100.00
2019-04-30T03:03:00.203Z,100.00
2019-04-30T03:05:31.147Z,100.00
2019-04-30T03:08:01.372Z,100.00
2019-04-30T03:10:31.509Z,100.00
2019-04-30T03:13:01.754Z,100.00
2019-04-30T03:15:31.864Z,100.00
2019-04-30T03:18:12.786Z,100.00
2019-04-30T03:21:01.903Z,100.00
2019-04-30T03:23:32.105Z,100.00
2019-04-30T03:26:02.236Z,100.00
2019-04-30T03:28:32.661Z,100.00
2019-04-30T03:31:04.553Z,100.00
2019-04-30T03:33:34.923Z,100.00
2019-04-30T03:36:05.179Z,100.00
2019-04-30T03:38:35.392Z,100.00
2019-04-30T03:41:05.903Z,100.00
2019-04-30T03:43:36.121Z,100.00
2019-04-30T03:46:09.909Z,100.00
2019-04-30T03:48:39.592Z,100.00
2019-04-30T03:51:10.561Z,100.00
2019-04-30T03:53:42.710Z,100.00
2019-04-30T03:56:13.163Z,100.00
2019-04-30T03:58:43.388Z,100.00
2019-04-30T04:01:30.608Z,100.00
2019-04-30T04:04:25.124Z,100.00
2019-04-30T04:07:04.673Z,100.00
2019-04-30T04:09:40.777Z,100.00
2019-04-30T04:12:23.771Z,100.00
2019-04-30T04:14:54.149Z,100.00
2019-04-30T04:17:24.671Z,100.00
2019-04-30T04:19:55.025Z,100.00
2019-04-30T04:22:25.382Z,100.00
2019-04-30T04:24:55.664Z,100.00
2019-04-30T04:27:25.921Z,100.00
2019-04-30T04:29:56.125Z,100.00
2019-04-30T04:32:26.525Z,100.00
2019-04-30T04:34:59.910Z,100.00
2019-04-30T04:37:30.277Z,100.00
2019-04-30T04:40:00.764Z,100.00
2019-04-30T04:42:33.926Z,100.00
2019-04-30T04:45:10.277Z,100.00
2019-04-30T04:47:40.532Z,100.00
2019-04-30T04:50:11.276Z,100.00
2019-04-30T04:52:41.643Z,100.00
2019-04-30T04:55:13.506Z,100.00
2019-04-30T04:57:43.951Z,100.00
2019-04-30T05:03:12.114Z,100.00
2019-04-30T05:05:42.375Z,100.00
2019-04-30T05:08:12.978Z,100.00
2019-04-30T05:10:49.534Z,100.00
2019-04-30T05:13:20.254Z,100.00
2019-04-30T05:15:51.554Z,100.00
2019-04-30T05:18:34.256Z,100.00
2019-04-30T05:21:04.640Z,100.00
2019-04-30T05:23:34.988Z,100.00
2019-04-30T05:26:05.290Z,100.00
2019-04-30T05:28:35.675Z,100.00
2019-04-30T05:31:06.044Z,100.00
2019-04-30T05:33:36.380Z,100.00
2019-04-30T05:36:06.790Z,100.00
2019-04-30T05:38:39.116Z,100.00
2019-04-30T05:41:09.452Z,100.00
2019-04-30T05:43:39.942Z,100.00
2019-04-30T05:46:10.971Z,100.00
2019-04-30T05:48:41.298Z,100.00
2019-04-30T05:51:14.673Z,100.00
2019-04-30T05:53:45.319Z,100.00
2019-04-30T05:56:15.854Z,100.00
2019-04-30T05:58:56.808Z,100.00
2019-04-30T06:01:35.861Z,100.00
2019-04-30T06:04:09.532Z,100.00
2019-04-30T06:06:49.016Z,100.00
2019-04-30T06:09:41.717Z,100.00
2019-04-30T06:12:46.326Z,100.00
2019-04-30T06:15:52.526Z,100.00
2019-04-30T06:18:33.220Z,100.00
2019-04-30T06:21:09.185Z,100.00
2019-04-30T06:23:39.450Z,100.00
2019-04-30T06:26:13.216Z,100.00
2019-04-30T06:28:43.173Z,100.00
2019-04-30T06:31:13.850Z,100.00
2019-04-30T06:33:44.389Z,100.00
2019-04-30T06:36:14.840Z,100.00
2019-04-30T06:38:45.148Z,100.00
2019-04-30T06:45:09.260Z,100.00
2019-04-30T06:51:30.579Z,100.00
2019-04-30T06:58:12.199Z,100.00
2019-04-30T07:24:49.661Z,100.00
2019-04-30T07:27:24.213Z,100.00
2019-04-30T07:29:54.771Z,100.00
2019-04-30T07:32:25.465Z,100.00
2019-04-30T07:34:55.830Z,100.00
2019-04-30T07:37:26.145Z,100.00
2019-04-30T07:39:56.500Z,100.00
2019-04-30T07:50:03.678Z,100.00
2019-04-30T07:59:55.347Z,100.00
2019-04-30T08:09:39.195Z,100.00
2019-04-30T08:36:48.912Z,100.00
2019-04-30T08:39:19.785Z,100.00
2019-04-30T08:41:50.268Z,100.00
2019-04-30T08:44:22.092Z,100.00
2019-04-30T08:46:53.750Z,100.00
2019-04-30T08:49:24.312Z,100.00
2019-04-30T08:51:54.883Z,100.00
2019-04-30T08:54:26.938Z,100.00
2019-04-30T08:56:57.290Z,100.00
2019-04-30T09:02:54.631Z,100.00
2019-04-30T09:05:30.719Z,100.00
2019-04-30T09:08:01.099Z,100.00
2019-04-30T09:10:31.643Z,100.00
2019-04-30T09:13:09.470Z,99.14
2019-04-30T09:15:40.804Z,98.89
2019-04-30T09:18:15.868Z,97.87
2019-04-30T09:20:46.471Z,94.67
2019-04-30T09:23:18.729Z,95.61
2019-04-30T09:25:52.467Z,95.94
2019-04-30T09:28:22.958Z,95.80
2019-04-30T09:30:54.126Z,96.95
2019-04-30T09:33:29.405Z,95.60
2019-04-30T09:35:59.986Z,98.42
2019-04-30T09:38:30.426Z,98.94
2019-04-30T09:41:00.816Z,96.85
2019-04-30T09:43:37.365Z,95.97
2019-04-30T09:46:17.990Z,94.88
2019-04-30T09:48:40.177Z,94.43
2019-04-30T09:51:11.350Z,95.18
2019-04-30T09:53:42.220Z,95.13
2019-04-30T09:56:12.614Z,94.79
2019-04-30T09:58:44.464Z,93.54
2019-04-30T10:01:18.030Z,92.02
2019-04-30T10:03:50.348Z,93.05
2019-04-30T10:06:20.854Z,93.34
2019-04-30T10:08:51.438Z,92.09
2019-04-30T10:11:28.522Z,93.49
2019-04-30T10:14:00.053Z,91.26
2019-04-30T10:16:45.105Z,93.00
2019-04-30T10:19:15.827Z,91.74
2019-04-30T10:21:46.615Z,93.84
2019-04-30T10:24:17.111Z,92.27
2019-04-30T10:26:47.603Z,92.94
2019-04-30T10:29:21.412Z,93.55
2019-04-30T10:31:52.135Z,91.36
2019-04-30T10:34:22.711Z,93.35
2019-04-30T10:36:53.837Z,90.92
2019-04-30T10:39:25.198Z,89.95
2019-04-30T10:41:55.637Z,88.58
2019-04-30T10:44:26.410Z,88.30
2019-04-30T10:46:56.709Z,86.35
2019-04-30T10:49:29.201Z,85.42
2019-04-30T10:52:01.151Z,82.23
2019-04-30T10:54:32.340Z,82.73
2019-04-30T10:57:03.108Z,82.09
2019-04-30T11:03:19.066Z,82.72
2019-04-30T11:05:41.283Z,84.07
2019-04-30T11:08:11.827Z,82.95
2019-04-30T11:10:43.706Z,80.66
2019-04-30T11:13:14.115Z,78.57
2019-04-30T11:15:50.383Z,77.45
2019-04-30T11:18:20.949Z,78.47
2019-04-30T11:20:53.029Z,75.48
2019-04-30T11:23:34.640Z,74.23
2019-04-30T11:26:05.895Z,75.54
2019-04-30T11:28:36.753Z,75.61
2019-04-30T11:31:26.279Z,72.64
2019-04-30T11:33:57.803Z,74.63
2019-04-30T11:36:29.168Z,70.12
2019-04-30T11:38:59.664Z,65.86
2019-04-30T11:41:33.056Z,68.53
2019-04-30T11:44:09.269Z,69.06
2019-04-30T11:47:16.314Z,69.49
2019-04-30T11:49:46.613Z,68.22
2019-04-30T11:52:19.981Z,68.14
2019-04-30T11:54:54.159Z,65.68
2019-04-30T11:57:22.328Z,65.78
2019-04-30T11:59:58.373Z,63.40
2019-04-30T12:02:53.233Z,66.56
2019-04-30T12:05:23.730Z,71.08
2019-04-30T12:08:11.437Z,71.23
2019-04-30T12:13:26.770Z,69.90
2019-04-30T12:15:58.837Z,68.63
2019-04-30T12:18:29.590Z,68.43
2019-04-30T12:21:00.053Z,66.79
2019-04-30T12:23:32.867Z,61.50
2019-04-30T12:26:03.282Z,61.62
2019-04-30T12:28:33.600Z,59.52
2019-04-30T12:31:05.880Z,60.94
2019-04-30T12:33:38.838Z,61.04
2019-04-30T12:36:09.306Z,61.44
2019-04-30T12:38:39.719Z,60.21
2019-04-30T12:41:12.692Z,58.49
2019-04-30T12:43:46.111Z,57.88
2019-04-30T12:46:16.458Z,55.17
2019-04-30T12:49:11.522Z,56.22
2019-04-30T12:51:52.930Z,56.82
2019-04-30T12:54:29.273Z,57.57
2019-04-30T12:57:19.130Z,57.00
2019-04-30T13:03:02.971Z,59.01
2019-04-30T13:05:39.605Z,57.52
2019-04-30T13:08:10.602Z,58.99
2019-04-30T13:10:41.754Z,59.95
2019-04-30T13:13:13.914Z,59.86
2019-04-30T13:15:44.608Z,57.71
2019-04-30T13:18:14.989Z,60.39
2019-04-30T13:20:45.406Z,56.18
2019-04-30T13:23:15.585Z,52.81
2019-04-30T13:25:51.531Z,51.58
2019-04-30T13:28:22.767Z,54.20
2019-04-30T13:30:52.935Z,53.83
2019-04-30T13:33:39.292Z,54.35
2019-04-30T13:36:10.069Z,53.90
2019-04-30T13:38:52.224Z,56.59
2019-04-30T13:41:38.248Z,55.56
2019-04-30T13:44:29.313Z,52.49
2019-04-30T13:46:59.696Z,51.93
2019-04-30T13:49:30.241Z,54.77
2019-04-30T13:52:03.604Z,50.91
2019-04-30T13:54:34.024Z,51.21
2019-04-30T13:57:09.111Z,49.87
2019-04-30T13:59:51.510Z,52.53
2019-04-30T14:02:21.847Z,50.80
2019-04-30T14:05:02.848Z,52.82
2019-04-30T14:08:02.520Z,53.04
2019-04-30T14:10:39.373Z,51.85
2019-04-30T14:13:10.252Z,54.36
2019-04-30T14:15:48.256Z,54.09
2019-04-30T14:18:28.615Z,56.42
2019-04-30T14:20:53.895Z,55.76
2019-04-30T14:23:28.853Z,57.69
2019-04-30T14:26:12.195Z,54.92
2019-04-30T14:28:42.438Z,54.97
2019-04-30T14:31:18.643Z,56.44
2019-04-30T14:33:53.750Z,56.33
2019-04-30T14:36:24.161Z,57.11
2019-04-30T14:38:55.019Z,53.04
2019-04-30T14:41:25.995Z,51.44
2019-04-30T14:44:05.412Z,50.30
2019-04-30T14:46:46.251Z,50.17
2019-04-30T14:49:36.527Z,50.21
2019-04-30T14:52:09.375Z,50.80
2019-04-30T14:55:26.565Z,50.87
2019-04-30T14:58:20.410Z,49.86
2019-04-30T15:03:50.566Z,53.29
2019-04-30T15:06:25.723Z,54.10
2019-04-30T15:08:59.039Z,51.94
2019-04-30T15:11:29.899Z,51.67
2019-04-30T15:14:01.426Z,51.92
2019-04-30T15:16:38.374Z,51.51
2019-04-30T15:50:39.707Z,49.60
2019-04-30T15:53:34.514Z,49.65
2019-04-30T15:56:09.699Z,48.24
2019-04-30T15:58:41.825Z,49.21
2019-04-30T16:41:02.473Z,51.29
2019-04-30T16:43:43.906Z,50.57
2019-04-30T16:46:31.168Z,49.04
2019-04-30T16:49:14.395Z,49.70
2019-04-30T16:52:01.184Z,51.04
2019-04-30T17:13:54.133Z,42.27
2019-04-30T17:16:24.646Z,43.53
2019-04-30T17:18:54.951Z,43.01
2019-04-30T17:21:26.055Z,42.81
2019-04-30T17:23:58.921Z,43.07
2019-04-30T17:26:29.300Z,42.84
2019-04-30T17:28:59.924Z,42.07
2019-04-30T17:31:30.484Z,42.58
2019-04-30T17:34:00.694Z,40.78
2019-04-30T17:36:31.093Z,41.15
2019-04-30T17:39:01.303Z,42.08
2019-04-30T17:41:31.510Z,42.01
2019-04-30T17:44:02.059Z,44.11
2019-04-30T17:46:32.483Z,46.04
2019-04-30T17:49:02.660Z,49.93
2019-04-30T17:51:33.016Z,50.01
2019-04-30T17:54:18.182Z,51.90
2019-04-30T17:56:51.230Z,52.61
2019-04-30T17:59:21.636Z,52.68
2019-04-30T18:01:57.125Z,53.18
2019-04-30T18:04:29.558Z,53.38
2019-04-30T18:07:00.444Z,54.60
2019-04-30T18:09:31.082Z,56.02
2019-04-30T18:12:01.368Z,55.72
2019-04-30T18:14:31.604Z,55.22
2019-04-30T18:17:01.800Z,58.69
2019-04-30T18:19:40.828Z,60.80
2019-04-30T18:22:30.045Z,62.90
2019-04-30T18:25:08.698Z,65.87
2019-04-30T18:27:46.300Z,67.94
2019-04-30T18:30:21.113Z,69.36
2019-04-30T18:32:51.019Z,70.61
2019-04-30T18:35:21.195Z,70.61
2019-04-30T18:37:53.996Z,71.06
2019-04-30T18:40:24.401Z,71.61
2019-04-30T18:42:54.740Z,72.57
2019-04-30T18:45:25.157Z,74.06
2019-04-30T18:47:55.422Z,74.86
2019-04-30T18:50:25.782Z,75.47
2019-04-30T18:52:58.731Z,75.84
2019-04-30T18:55:32.150Z,75.13
2019-04-30T18:58:02.600Z,76.05
2019-04-30T19:03:01.556Z,75.10
2019-04-30T19:05:31.994Z,75.86
2019-04-30T19:08:09.847Z,75.62
2019-04-30T19:11:03.383Z,74.74
2019-04-30T19:14:36.514Z,74.81
2019-04-30T19:17:42.039Z,74.62
2019-04-30T19:20:28.698Z,74.39
2019-04-30T19:23:15.405Z,75.81
2019-04-30T19:25:43.226Z,75.97
2019-04-30T19:28:14.561Z,76.64
2019-04-30T19:31:11.624Z,75.92
2019-04-30T19:34:01.885Z,76.62
2019-04-30T19:36:54.806Z,76.73
2019-04-30T19:39:29.201Z,76.58
2019-04-30T19:41:58.737Z,76.15
2019-04-30T19:45:09.475Z,76.48
2019-04-30T19:48:15.907Z,76.29
2019-04-30T19:50:44.847Z,76.06
2019-04-30T19:53:54.248Z,76.57
2019-04-30T19:57:05.464Z,76.10
2019-04-30T19:59:39.640Z,75.59
2019-04-30T20:02:10.642Z,76.12
2019-04-30T20:04:42.331Z,77.13
2019-04-30T20:07:12.647Z,77.89
2019-04-30T20:09:57.607Z,78.09
2019-04-30T20:12:19.067Z,78.66
2019-04-30T20:15:00.536Z,79.50
2019-04-30T20:17:30.983Z,80.26
2019-04-30T20:20:01.216Z,80.51
2019-04-30T20:22:31.379Z,81.03
2019-04-30T20:25:01.599Z,79.89
2019-04-30T20:27:32.161Z,80.35
2019-04-30T20:30:02.467Z,80.21
2019-04-30T20:32:36.137Z,81.62
2019-04-30T20:35:05.332Z,82.69
2019-04-30T20:37:54.943Z,83.11
2019-04-30T20:40:33.276Z,83.21
2019-04-30T20:42:59.808Z,83.12
2019-04-30T20:45:32.879Z,83.64
2019-04-30T20:48:04.990Z,83.81
2019-04-30T20:50:37.850Z,83.62
2019-04-30T20:53:10.471Z,84.31
2019-04-30T20:55:44.790Z,85.02
2019-04-30T20:58:15.035Z,85.83
2019-04-30T21:02:52.899Z,85.76
2019-04-30T21:05:23.291Z,85.59
2019-04-30T21:07:53.524Z,85.92
2019-04-30T21:10:23.876Z,85.75
2019-04-30T21:12:54.072Z,85.63
2019-04-30T21:15:24.575Z,86.93
2019-04-30T21:17:54.954Z,87.50
2019-04-30T21:20:25.262Z,85.64
2019-04-30T21:22:55.593Z,86.50
2019-04-30T21:25:25.882Z,86.17
2019-04-30T21:27:56.098Z,87.01
2019-04-30T21:30:26.719Z,87.78
2019-04-30T21:33:12.314Z,88.09
2019-04-30T21:35:54.259Z,88.09
2019-04-30T21:38:24.574Z,87.08
2019-04-30T21:40:54.844Z,86.90
2019-04-30T21:43:27.426Z,87.48
2019-04-30T21:45:59.406Z,87.38
2019-04-30T21:48:29.611Z,87.87
2019-04-30T21:51:00.085Z,88.12
2019-04-30T21:53:30.361Z,88.03
2019-04-30T21:56:00.860Z,88.09
2019-04-30T21:58:31.004Z,89.21
2019-04-30T22:01:17.475Z,89.83
2019-04-30T22:03:48.346Z,89.11
2019-04-30T22:06:19.580Z,89.14
2019-04-30T22:08:50.010Z,90.21
2019-04-30T22:11:20.796Z,90.30
2019-04-30T22:13:51.353Z,89.76
2019-04-30T22:16:22.012Z,90.34
2019-04-30T22:18:55.072Z,89.62
2019-04-30T22:21:25.870Z,90.44
2019-04-30T22:23:56.188Z,90.86
2019-04-30T22:26:26.625Z,91.15
2019-04-30T22:28:56.929Z,91.28
2019-04-30T22:31:27.306Z,91.22
2019-04-30T22:33:58.959Z,92.38
2019-04-30T22:40:55.860Z,93.90
2019-04-30T22:43:27.335Z,95.01
2019-04-30T22:46:01.951Z,95.06
2019-04-30T22:48:32.615Z,95.64
2019-04-30T22:51:03.064Z,95.24
2019-04-30T22:53:33.399Z,96.02
2019-04-30T22:56:03.749Z,96.27
2019-04-30T22:58:34.164Z,95.30
2019-04-30T23:03:10.502Z,96.08
2019-04-30T23:05:41.800Z,96.90
2019-04-30T23:08:12.062Z,95.99
2019-04-30T23:10:43.328Z,96.06
2019-04-30T23:13:13.952Z,96.50
2019-04-30T23:15:45.319Z,97.03
2019-04-30T23:18:15.695Z,97.35
2019-04-30T23:20:46.309Z,97.40
2019-04-30T23:23:17.948Z,97.40
2019-04-30T23:25:48.838Z,97.80
2019-04-30T23:28:20.243Z,97.86
2019-04-30T23:30:50.838Z,97.17
2019-04-30T23:33:22.529Z,97.46
2019-04-30T23:35:53.182Z,98.14
2019-04-30T23:38:23.559Z,99.83
2019-04-30T23:40:56.361Z,99.60
2019-04-30T23:43:26.697Z,99.79
2019-04-30T23:45:57.129Z,99.90
2019-04-30T23:48:27.548Z,100.00
2019-04-30T23:50:57.789Z,100.00
2019-04-30T23:53:28.156Z,100.00
2019-04-30T23:55:58.723Z,100.00
2019-04-30T23:58:29.219Z,100.00
